Time;durP1;ratioP1;P1;durP2;ratioP2;P2;SDS_P1;SDS_P2;PMS_P1;PMS_P2;Temp;Humidity;BMP_temperature;BMP_pressure;BME280_temperature;BME280_humidity;BME280_pressure;Samples;Min_cycle;Max_cycle;Signal;HPM_P1;HPM_P2
2022/06/01 00:01:18;;;;;;;1.13;0.00;;;17.90;73.60;;;;;;5035211;28;20022;-76
2022/06/01 00:03:45;;;;;;;1.08;0.20;;;18.00;72.90;;;;;;5066899;28;20065;-88
2022/06/01 00:06:13;;;;;;;0.10;0.00;;;18.00;72.80;;;;;;5044482;28;20087;-87
2022/06/01 00:08:40;;;;;;;0.63;0.10;;;18.10;72.50;;;;;;5048547;28;20021;-83
2022/06/01 00:11:09;;;;;;;0.13;0.10;;;18.10;72.30;;;;;;5040847;28;20489;-73
2022/06/01 00:13:38;;;;;;;0.17;0.00;;;18.30;72.90;;;;;;5048527;28;20488;-81
2022/06/01 00:16:07;;;;;;;0.00;0.00;;;18.60;71.90;;;;;;5034745;28;20048;-85
2022/06/01 00:18:36;;;;;;;0.20;0.10;;;18.60;71.40;;;;;;5034988;28;20107;-76
2022/06/01 00:21:05;;;;;;;0.85;0.00;;;18.50;70.90;;;;;;5029241;28;20384;-79
2022/06/01 00:23:32;;;;;;;0.00;0.00;;;18.40;71.50;;;;;;5032700;28;20026;-75
2022/06/01 00:25:59;;;;;;;0.38;0.00;;;18.50;71.30;;;;;;5033145;28;20033;-75
2022/06/01 00:28:27;;;;;;;0.00;0.00;;;18.60;71.20;;;;;;5028527;28;20025;-75
2022/06/01 00:30:54;;;;;;;0.05;0.00;;;18.80;71.10;;;;;;5028742;28;20037;-79
2022/06/01 00:33:21;;;;;;;0.20;0.08;;;19.20;70.90;;;;;;5033109;28;20029;-82
2022/06/01 00:35:49;;;;;;;0.40;0.20;;;19.10;70.00;;;;;;5045271;28;20033;-85
2022/06/01 00:38:16;;;;;;;0.25;0.03;;;19.30;70.70;;;;;;5032244;28;20033;-76
2022/06/01 00:40:44;;;;;;;0.90;0.13;;;19.20;69.10;;;;;;5031199;28;20075;-77
2022/06/01 00:43:36;;;;;;;1.27;0.10;;;18.80;70.60;;;;;;5038401;28;20031;-76
2022/06/01 00:46:03;;;;;;;0.05;0.05;;;18.80;69.50;;;;;;5033434;28;20136;-81
2022/06/01 00:48:32;;;;;;;0.43;0.00;;;19.40;70.40;;;;;;5035667;28;20063;-84
2022/06/01 00:51:00;;;;;;;0.10;0.10;;;20.20;69.90;;;;;;5053040;28;20075;-80
2022/06/01 00:53:30;;;;;;;0.47;0.00;;;21.10;69.20;;;;;;5033010;28;20102;-80
2022/06/01 00:56:08;;;;;;;1.23;0.10;;;21.20;68.00;;;;;;5039296;28;20052;-80
2022/06/01 00:58:40;;;;;;;1.27;0.00;;;21.10;66.40;;;;;;5048968;28;20109;-75
2022/06/01 01:01:11;;;;;;;0.10;0.10;;;20.90;67.10;;;;;;5046599;28;20048;-76
2022/06/01 01:03:42;;;;;;;1.08;0.00;;;21.30;67.00;;;;;;5033527;28;20054;-74
2022/06/01 01:06:33;;;;;;;0.00;0.00;;;21.50;66.30;;;;;;5033742;28;20034;-76
2022/06/01 01:09:02;;;;;;;0.00;0.00;;;21.60;65.20;;;;;;5035183;28;20456;-78
2022/06/01 01:11:59;;;;;;;0.20;0.08;;;21.60;66.10;;;;;;5031064;28;20507;-77
2022/06/01 01:14:30;;;;;;;0.10;0.10;;;21.40;65.90;;;;;;5037090;28;20078;-83
2022/06/01 01:16:59;;;;;;;0.55;0.10;;;21.20;65.30;;;;;;5042004;28;20481;-84
2022/06/01 01:19:47;;;;;;;1.00;0.00;;;21.20;65.60;;;;;;5035876;28;20087;-81
2022/06/01 01:22:23;;;;;;;0.00;0.00;;;21.50;65.60;;;;;;5041102;28;20484;-80
2022/06/01 01:25:18;;;;;;;0.30;0.00;;;21.70;63.50;;;;;;5037335;28;20483;-81
2022/06/01 01:27:48;;;;;;;0.40;0.10;;;21.20;64.50;;;;;;5028859;28;20034;-77
2022/06/01 01:30:37;;;;;;;0.10;0.00;;;21.20;63.70;;;;;;5033100;28;20022;-74
2022/06/01 01:33:12;;;;;;;1.65;0.15;;;21.40;64.60;;;;;;5042645;28;20119;-76
2022/06/01 01:35:40;;;;;;;0.05;0.00;;;21.50;64.10;;;;;;5039172;28;20048;-74
2022/06/01 01:38:15;;;;;;;0.22;0.00;;;21.30;64.30;;;;;;5033405;28;20030;-76
2022/06/01 01:40:42;;;;;;;0.10;0.00;;;21.10;64.20;;;;;;5051476;28;20056;-75
2022/06/01 01:43:11;;;;;;;2.72;0.10;;;21.10;64.20;;;;;;5045488;28;20387;-77
2022/06/01 01:45:38;;;;;;;0.50;0.00;;;20.90;64.10;;;;;;5034770;28;20021;-74
2022/06/01 01:48:06;;;;;;;0.08;0.08;;;20.80;64.20;;;;;;5038785;28;20044;-77
2022/06/01 01:50:33;;;;;;;0.20;0.10;;;20.70;63.50;;;;;;5038812;28;20021;-79
2022/06/01 01:53:01;;;;;;;0.93;0.10;;;20.20;64.90;;;;;;5041590;28;20432;-78
2022/06/01 01:55:53;;;;;;;0.20;0.03;;;20.50;65.20;;;;;;5038066;28;20032;-79
2022/06/01 01:58:37;;;;;;;0.05;0.00;;;20.60;64.80;;;;;;5031399;28;20049;-81
2022/06/01 02:01:14;;;;;;;0.10;0.00;;;20.40;65.10;;;;;;5043545;28;20082;-79
2022/06/01 02:03:48;;;;;;;2.40;0.75;;;20.50;64.40;;;;;;5039381;28;20657;-80
2022/06/01 02:06:43;;;;;;;0.30;0.10;;;20.30;65.10;;;;;;5028116;28;20179;-80
2022/06/01 02:09:13;;;;;;;1.30;0.17;;;20.70;65.40;;;;;;5038431;28;20090;-80
2022/06/01 02:14:39;;;;;;;0.10;0.10;;;21.00;63.80;;;;;;5049343;28;20499;-83
2022/06/01 02:17:29;;;;;;;0.00;0.00;;;20.20;65.40;;;;;;5052519;28;20021;-82
2022/06/01 02:20:08;;;;;;;0.95;0.40;;;20.40;64.50;;;;;;5046888;28;20033;-82
2022/06/01 02:22:37;;;;;;;2.50;1.10;;;20.20;65.10;;;;;;5040308;28;20029;-78
2022/06/01 02:25:05;;;;;;;0.10;0.10;;;20.50;66.20;;;;;;5047843;28;20036;-88
2022/06/01 02:27:33;;;;;;;0.32;0.10;;;21.00;65.10;;;;;;5045918;28;20432;-83
2022/06/01 02:30:13;;;;;;;0.25;0.10;;;21.70;65.30;;;;;;5050146;28;20089;-86
2022/06/01 02:32:42;;;;;;;0.35;0.10;;;21.30;63.30;;;;;;5036953;28;20033;-83
2022/06/01 02:35:13;;;;;;;0.00;0.00;;;21.20;64.30;;;;;;5035755;28;20025;-84
2022/06/01 02:37:43;;;;;;;0.10;0.10;;;21.40;64.10;;;;;;5046405;28;20037;-82
2022/06/01 02:40:17;;;;;;;0.15;0.00;;;21.20;64.70;;;;;;5048071;28;20037;-84
2022/06/01 02:42:50;;;;;;;0.60;0.15;;;20.90;63.80;;;;;;5038970;28;20048;-83
2022/06/01 02:45:24;;;;;;;0.00;0.00;;;20.00;64.50;;;;;;5039465;28;20428;-85
2022/06/01 02:47:53;;;;;;;0.15;0.10;;;19.70;65.20;;;;;;5036137;28;20509;-74
2022/06/01 02:50:24;;;;;;;0.00;0.00;;;19.50;65.70;;;;;;5043664;28;20040;-73
2022/06/01 02:52:52;;;;;;;0.60;0.10;;;19.30;66.30;;;;;;5031558;28;20064;-75
2022/06/01 02:55:21;;;;;;;0.15;0.10;;;19.20;65.10;;;;;;5046061;28;20032;-75
2022/06/01 02:57:50;;;;;;;0.32;0.10;;;19.50;65.70;;;;;;5033055;28;20440;-75
2022/06/01 03:00:26;;;;;;;0.00;0.00;;;19.60;66.00;;;;;;5031648;28;20113;-73
2022/06/01 03:02:57;;;;;;;0.65;0.15;;;19.80;65.90;;;;;;5037190;28;20377;-75
2022/06/01 03:05:31;;;;;;;1.15;0.10;;;19.50;65.60;;;;;;5040199;28;20199;-74
2022/06/01 03:07:58;;;;;;;0.32;0.00;;;19.30;67.10;;;;;;5039275;28;20401;-76
2022/06/01 03:10:27;;;;;;;0.52;0.10;;;18.80;66.80;;;;;;5046833;28;20036;-81
2022/06/01 03:12:55;;;;;;;1.55;0.05;;;18.40;66.30;;;;;;5044233;28;20025;-76
2022/06/01 03:15:25;;;;;;;0.35;0.10;;;18.20;66.30;;;;;;5027595;28;20033;-77
2022/06/01 03:17:53;;;;;;;1.02;0.10;;;18.30;68.50;;;;;;5031550;28;20025;-83
2022/06/01 03:20:27;;;;;;;0.20;0.10;;;18.40;67.40;;;;;;5035937;28;20043;-86
2022/06/01 03:22:55;;;;;;;0.00;0.00;;;18.10;67.30;;;;;;5032676;28;20825;-79
2022/06/01 03:25:24;;;;;;;0.28;0.15;;;17.60;67.40;;;;;;5028099;28;20032;-79
2022/06/01 03:27:53;;;;;;;0.47;0.00;;;17.30;68.50;;;;;;5031022;28;20089;-77
2022/06/01 03:30:22;;;;;;;0.13;0.10;;;16.90;69.60;;;;;;5029859;28;20476;-86
2022/06/01 03:32:52;;;;;;;0.22;0.00;;;16.60;71.00;;;;;;5034435;28;20102;-80
2022/06/01 03:35:22;;;;;;;0.03;0.00;;;16.30;69.40;;;;;;5029148;28;21808;-77
2022/06/01 03:37:51;;;;;;;0.93;0.30;;;16.00;70.90;;;;;;5030128;28;20528;-74
2022/06/01 03:40:22;;;;;;;0.50;0.20;;;15.80;71.10;;;;;;5033345;28;20025;-79
2022/06/01 03:42:49;;;;;;;0.98;0.28;;;15.70;71.80;;;;;;5031809;28;20040;-87
2022/06/01 03:48:03;;;;;;;1.45;0.52;;;15.30;71.60;;;;;;5035454;28;20460;-79
2022/06/01 03:50:31;;;;;;;1.55;0.10;;;15.20;72.20;;;;;;5037518;28;20025;-76
2022/06/01 03:52:58;;;;;;;0.98;0.03;;;15.20;73.40;;;;;;5035021;28;20030;-74
2022/06/01 03:55:27;;;;;;;0.10;0.10;;;15.20;73.00;;;;;;5034434;28;20134;-82
2022/06/01 03:57:55;;;;;;;2.75;0.20;;;15.00;73.00;;;;;;5033559;28;20159;-78
2022/06/01 04:00:25;;;;;;;0.75;0.10;;;14.90;71.80;;;;;;5033559;28;20034;-77
2022/06/01 04:02:53;;;;;;;0.70;0.00;;;14.70;73.30;;;;;;5032240;28;20033;-78
2022/06/01 04:05:22;;;;;;;0.70;0.10;;;14.50;73.20;;;;;;5029792;28;20029;-74
2022/06/01 04:07:50;;;;;;;0.90;0.03;;;14.50;74.80;;;;;;5031705;28;20939;-75
2022/06/01 04:10:20;;;;;;;0.17;0.10;;;14.60;74.30;;;;;;5032763;28;20043;-76
2022/06/01 04:12:47;;;;;;;3.17;0.28;;;14.70;74.90;;;;;;5031306;28;20032;-73
2022/06/01 04:15:15;;;;;;;0.55;0.10;;;14.70;74.20;;;;;;5035161;28;20407;-75
2022/06/01 04:17:43;;;;;;;0.17;0.17;;;14.60;74.30;;;;;;5039161;28;20106;-74
2022/06/01 04:20:14;;;;;;;0.00;0.00;;;14.50;74.20;;;;;;5032324;28;20088;-76
2022/06/01 04:22:43;;;;;;;0.70;0.13;;;14.50;75.10;;;;;;5038508;28;20041;-75
2022/06/01 04:25:15;;;;;;;0.35;0.10;;;14.50;75.30;;;;;;5031329;28;20452;-78
2022/06/01 04:27:43;;;;;;;0.40;0.10;;;14.50;75.30;;;;;;5036397;28;20452;-86
2022/06/01 04:30:14;;;;;;;0.30;0.10;;;14.40;75.10;;;;;;5037009;28;20036;-79
2022/06/01 04:32:44;;;;;;;0.13;0.00;;;14.40;75.60;;;;;;5037381;28;20047;-80
2022/06/01 04:35:12;;;;;;;0.10;0.10;;;14.40;75.10;;;;;;5035243;28;20052;-80
2022/06/01 04:37:39;;;;;;;0.77;0.40;;;14.40;75.60;;;;;;5032433;28;20030;-79
2022/06/01 04:40:07;;;;;;;0.73;0.20;;;14.30;76.50;;;;;;5047075;28;20027;-79
2022/06/01 04:42:35;;;;;;;1.00;0.10;;;14.40;75.90;;;;;;5046728;28;20044;-76
2022/06/01 04:45:03;;;;;;;0.35;0.15;;;14.40;76.40;;;;;;5041576;28;20033;-76
2022/06/01 04:47:31;;;;;;;0.30;0.10;;;14.40;76.00;;;;;;5037885;28;20025;-77
2022/06/01 04:49:58;;;;;;;0.20;0.10;;;14.40;76.30;;;;;;5031927;28;20373;-77
2022/06/01 04:52:25;;;;;;;6.53;0.10;;;14.40;76.80;;;;;;5041575;28;20060;-77
2022/06/01 04:54:53;;;;;;;0.00;0.00;;;14.40;76.90;;;;;;5037830;28;20368;-81
2022/06/01 04:57:21;;;;;;;0.50;0.08;;;14.40;77.30;;;;;;5033869;28;20020;-76
2022/06/01 04:59:48;;;;;;;2.17;0.17;;;14.40;77.80;;;;;;5030753;28;20140;-78
2022/06/01 05:02:16;;;;;;;1.77;0.10;;;14.40;77.60;;;;;;5033349;28;20098;-76
2022/06/01 05:04:48;;;;;;;0.40;0.00;;;14.40;78.10;;;;;;5047777;28;20640;-78
2022/06/01 05:07:15;;;;;;;1.40;0.10;;;14.40;78.10;;;;;;5062335;28;20033;-77
2022/06/01 05:09:42;;;;;;;0.98;0.10;;;14.30;78.00;;;;;;5033585;28;20044;-81
2022/06/01 05:12:10;;;;;;;1.15;0.17;;;14.40;78.00;;;;;;5031960;28;20425;-77
2022/06/01 05:14:37;;;;;;;2.22;0.13;;;14.30;77.30;;;;;;5034441;28;20037;-76
2022/06/01 05:17:05;;;;;;;0.63;0.15;;;14.30;78.20;;;;;;5035339;28;20031;-76
2022/06/01 05:19:34;;;;;;;0.20;0.00;;;14.30;78.30;;;;;;5032868;28;20086;-78
2022/06/01 05:22:02;;;;;;;2.72;0.05;;;14.30;78.50;;;;;;5031947;28;20028;-75
2022/06/01 05:24:30;;;;;;;0.10;0.10;;;14.30;78.60;;;;;;5032089;28;20030;-77
2022/06/01 05:26:57;;;;;;;0.30;0.03;;;14.20;78.10;;;;;;5044453;28;20040;-78
2022/06/01 05:29:25;;;;;;;0.45;0.10;;;14.20;78.90;;;;;;5035332;28;20545;-76
2022/06/01 05:31:52;;;;;;;1.05;0.20;;;14.20;79.30;;;;;;5031531;28;20087;-76
2022/06/01 05:34:19;;;;;;;0.10;0.00;;;14.10;78.50;;;;;;5036223;28;20036;-75
2022/06/01 05:36:47;;;;;;;2.25;0.20;;;14.10;79.10;;;;;;5030530;28;20384;-76
2022/06/01 05:39:14;;;;;;;1.27;0.22;;;14.10;79.40;;;;;;5030449;28;20135;-75
2022/06/01 05:41:42;;;;;;;0.57;0.10;;;14.10;79.50;;;;;;5029306;28;20116;-78
2022/06/01 05:44:09;;;;;;;0.30;0.20;;;14.10;80.00;;;;;;5035635;28;20025;-77
2022/06/01 05:46:36;;;;;;;0.43;0.20;;;14.10;80.20;;;;;;5030940;28;20036;-76
2022/06/01 05:49:05;;;;;;;0.52;0.10;;;14.00;80.20;;;;;;5037209;28;20059;-77
2022/06/01 05:51:34;;;;;;;0.43;0.10;;;14.00;80.60;;;;;;5040789;28;20387;-76
2022/06/01 05:54:02;;;;;;;0.80;0.32;;;14.00;80.60;;;;;;5041839;28;20033;-76
2022/06/01 05:56:29;;;;;;;0.25;0.10;;;14.00;81.20;;;;;;5040266;28;20017;-76
2022/06/01 05:58:57;;;;;;;0.40;0.15;;;14.00;80.70;;;;;;5048896;28;20032;-76
2022/06/01 06:01:24;;;;;;;0.10;0.05;;;14.00;80.90;;;;;;5044138;28;20060;-75
2022/06/01 06:03:52;;;;;;;0.32;0.10;;;14.10;81.40;;;;;;5042463;28;20060;-75
2022/06/01 06:06:20;;;;;;;2.92;0.77;;;14.10;81.90;;;;;;5033895;28;20499;-81
2022/06/01 06:09:04;;;;;;;1.50;0.20;;;14.10;82.50;;;;;;5032434;28;20912;-74
2022/06/01 06:11:35;;;;;;;0.47;0.22;;;14.20;82.10;;;;;;5034987;28;20033;-79
2022/06/01 06:14:02;;;;;;;1.27;0.15;;;14.20;82.10;;;;;;5050840;28;20052;-76
2022/06/01 06:16:34;;;;;;;0.22;0.10;;;14.30;81.40;;;;;;5034468;28;20085;-82
2022/06/01 06:19:03;;;;;;;0.20;0.10;;;14.30;81.30;;;;;;5031914;28;20035;-77
2022/06/01 06:21:31;;;;;;;0.30;0.30;;;14.30;81.10;;;;;;5031335;28;20155;-78
2022/06/01 06:24:04;;;;;;;0.77;0.10;;;14.20;81.00;;;;;;5037796;28;20481;-80
2022/06/01 06:26:32;;;;;;;0.10;0.10;;;14.10;80.70;;;;;;5041335;28;20459;-80
2022/06/01 06:29:03;;;;;;;1.85;0.20;;;14.00;80.70;;;;;;5038706;28;20102;-75
2022/06/01 06:31:30;;;;;;;2.13;0.20;;;13.90;81.10;;;;;;5036431;28;20034;-77
2022/06/01 06:33:58;;;;;;;0.38;0.10;;;13.80;82.00;;;;;;5028988;28;20033;-76
2022/06/01 06:36:25;;;;;;;2.13;0.22;;;13.60;82.20;;;;;;5033722;28;20040;-82
2022/06/01 06:38:52;;;;;;;0.73;0.10;;;13.40;83.00;;;;;;5033543;28;20585;-77
2022/06/01 06:41:21;;;;;;;0.10;0.10;;;13.20;83.00;;;;;;5030807;28;20021;-74
2022/06/01 06:43:49;;;;;;;0.98;0.20;;;13.10;83.40;;;;;;5031195;28;20476;-79
2022/06/01 06:46:19;;;;;;;0.57;0.17;;;13.00;84.10;;;;;;5031781;28;20043;-77
2022/06/01 06:48:50;;;;;;;0.20;0.10;;;12.80;84.00;;;;;;5033182;28;20072;-79
2022/06/01 06:51:20;;;;;;;0.25;0.20;;;12.80;84.60;;;;;;5034128;28;20152;-81
2022/06/01 06:53:48;;;;;;;1.67;0.25;;;12.70;85.20;;;;;;5030873;28;20812;-81
2022/06/01 06:56:17;;;;;;;2.20;0.50;;;12.60;85.60;;;;;;5032717;28;20028;-79
2022/06/01 06:58:44;;;;;;;0.13;0.10;;;12.50;85.80;;;;;;5034089;28;20025;-81
2022/06/01 07:01:11;;;;;;;1.02;0.28;;;12.40;86.40;;;;;;5033413;28;20049;-80
2022/06/01 07:03:39;;;;;;;2.05;0.30;;;12.40;86.20;;;;;;5033225;28;20035;-79
2022/06/01 07:06:10;;;;;;;0.30;0.10;;;12.30;86.70;;;;;;5031539;28;20037;-77
2022/06/01 07:08:42;;;;;;;4.45;0.25;;;12.30;86.60;;;;;;5034826;28;20294;-79
2022/06/01 07:11:11;;;;;;;0.98;0.20;;;12.20;86.90;;;;;;5036623;28;20025;-79
2022/06/01 07:13:40;;;;;;;2.83;1.33;;;12.10;87.20;;;;;;5028407;28;20120;-79
2022/06/01 07:16:24;;;;;;;4.10;0.90;;;12.10;87.20;;;;;;5030849;28;20443;-79
2022/06/01 07:18:54;;;;;;;0.95;0.50;;;12.10;87.30;;;;;;5030676;28;20029;-81
2022/06/01 07:21:22;;;;;;;2.58;1.15;;;12.10;87.80;;;;;;5031445;28;20397;-78
2022/06/01 07:23:51;;;;;;;7.70;3.22;;;12.00;87.90;;;;;;5028402;28;20037;-81
2022/06/01 07:26:33;;;;;;;8.65;4.60;;;12.00;88.50;;;;;;5031921;28;21039;-80
2022/06/01 07:29:01;;;;;;;23.52;9.98;;;11.90;88.80;;;;;;5044563;28;20489;-80
2022/06/01 07:31:29;;;;;;;5.82;2.42;;;11.80;89.80;;;;;;5048321;28;20438;-79
2022/06/01 07:33:58;;;;;;;4.00;2.05;;;11.80;89.00;;;;;;5035178;28;20096;-75
2022/06/01 07:36:27;;;;;;;4.85;2.13;;;11.70;89.90;;;;;;5026440;28;21177;-78
2022/06/01 07:44:29;;;;;;;1.88;0.40;;;11.60;91.40;;;;;;5028938;28;20128;-75
2022/06/01 07:46:57;;;;;;;2.00;0.63;;;11.60;91.10;;;;;;5033174;28;20130;-77
2022/06/01 07:49:24;;;;;;;3.88;1.58;;;11.50;91.20;;;;;;5039974;28;20183;-79
2022/06/01 07:51:58;;;;;;;5.30;1.58;;;11.50;91.30;;;;;;5054009;28;20109;-78
2022/06/01 07:54:26;;;;;;;2.03;1.33;;;11.40;91.20;;;;;;5036782;28;20077;-77
2022/06/01 07:56:53;;;;;;;2.28;0.98;;;11.30;91.10;;;;;;5033604;28;20025;-75
2022/06/01 07:59:20;;;;;;;3.28;1.70;;;11.30;91.10;;;;;;5034154;28;20533;-74
2022/06/01 08:01:48;;;;;;;2.53;1.02;;;11.30;91.10;;;;;;5032580;28;20184;-74
2022/06/01 08:04:16;;;;;;;2.15;1.08;;;11.30;91.00;;;;;;5030862;28;20097;-76
2022/06/01 08:06:43;;;;;;;2.28;1.52;;;11.20;91.00;;;;;;5037337;28;20037;-77
2022/06/01 08:09:10;;;;;;;2.35;1.45;;;11.20;91.40;;;;;;5033281;28;20022;-76
2022/06/01 08:14:23;;;;;;;0.50;0.40;;;11.20;91.00;;;;;;5034902;28;20506;-75
2022/06/01 08:16:51;;;;;;;1.52;0.95;;;11.10;91.10;;;;;;5038801;28;20033;-73
2022/06/01 08:19:18;;;;;;;4.85;1.65;;;11.10;91.50;;;;;;5040159;28;20778;-75
2022/06/01 08:21:46;;;;;;;1.52;0.80;;;11.10;91.50;;;;;;5052461;28;20033;-74
2022/06/01 08:24:14;;;;;;;0.75;0.55;;;11.10;91.50;;;;;;5046165;28;20025;-74
2022/06/01 08:26:41;;;;;;;1.50;0.93;;;11.10;91.30;;;;;;5051650;28;20481;-75
2022/06/01 08:29:08;;;;;;;1.02;0.65;;;11.20;91.30;;;;;;5050148;28;20024;-75
2022/06/01 08:31:36;;;;;;;1.70;0.68;;;11.20;91.50;;;;;;5052733;28;20051;-74
2022/06/01 08:34:05;;;;;;;2.40;0.50;;;11.10;91.60;;;;;;5044081;28;20510;-76
2022/06/01 08:36:33;;;;;;;1.27;0.60;;;11.00;91.90;;;;;;5044708;28;20027;-76
2022/06/01 08:39:00;;;;;;;2.92;0.30;;;10.90;92.60;;;;;;5051558;28;20475;-76
2022/06/01 08:41:37;;;;;;;1.48;0.70;;;10.70;92.70;;;;;;5046228;28;20023;-76
2022/06/01 08:44:19;;;;;;;1.45;0.50;;;10.60;92.70;;;;;;5048538;28;20112;-75
2022/06/01 08:46:46;;;;;;;1.30;0.60;;;10.50;93.40;;;;;;5049959;28;20060;-75
2022/06/01 08:49:21;;;;;;;1.98;0.88;;;10.50;92.80;;;;;;5051712;28;20056;-74
2022/06/01 08:51:49;;;;;;;8.05;2.47;;;10.50;92.70;;;;;;5053387;28;20029;-73
2022/06/01 08:54:17;;;;;;;4.60;3.03;;;10.50;92.70;;;;;;5051383;28;20512;-73
2022/06/01 08:56:51;;;;;;;4.88;1.98;;;10.50;92.70;;;;;;5049420;28;20025;-76
2022/06/01 08:59:40;;;;;;;2.40;1.52;;;10.60;92.70;;;;;;5035872;28;20025;-76
2022/06/01 09:02:43;;;;;;;2.72;1.35;;;10.60;92.60;;;;;;5050580;28;20033;-75
2022/06/01 09:05:18;;;;;;;1.23;0.20;;;10.60;92.60;;;;;;5051706;28;20328;-74
2022/06/01 09:08:16;;;;;;;0.30;0.25;;;10.60;92.60;;;;;;5050384;28;20383;-75
2022/06/01 09:11:21;;;;;;;0.75;0.40;;;10.60;92.70;;;;;;5037435;28;20028;-76
2022/06/01 09:14:01;;;;;;;0.73;0.30;;;10.60;92.70;;;;;;4995035;28;20584;-75
2022/06/01 09:16:43;;;;;;;2.92;0.70;;;10.60;92.90;;;;;;5009631;28;20064;-76
2022/06/01 09:19:21;;;;;;;1.17;0.80;;;10.50;92.90;;;;;;5036753;28;20037;-74
2022/06/01 09:24:52;;;;;;;0.85;0.55;;;10.50;92.90;;;;;;5048079;28;20090;-76
2022/06/01 09:27:38;;;;;;;0.57;0.50;;;10.50;93.20;;;;;;5049638;28;20028;-75
2022/06/01 09:30:31;;;;;;;1.20;0.70;;;10.50;93.30;;;;;;5047547;28;20029;-74
2022/06/01 09:33:05;;;;;;;4.00;1.02;;;10.40;93.80;;;;;;5031744;28;20443;-74
2022/06/01 09:35:39;;;;;;;1.08;0.60;;;10.30;94.10;;;;;;5051075;28;20404;-74
2022/06/01 09:38:38;;;;;;;0.98;0.60;;;10.20;94.00;;;;;;5046473;28;20498;-75
2022/06/01 09:41:09;;;;;;;1.77;0.70;;;10.10;94.40;;;;;;5032962;28;20466;-74
2022/06/01 09:43:41;;;;;;;1.05;0.63;;;10.00;94.80;;;;;;5033072;28;20053;-73
2022/06/01 09:46:10;;;;;;;2.17;0.82;;;9.90;94.80;;;;;;5052136;28;20033;-75
2022/06/01 09:48:44;;;;;;;1.63;0.70;;;9.90;95.00;;;;;;5042346;28;20049;-74
2022/06/01 09:51:25;;;;;;;1.15;0.60;;;9.90;95.10;;;;;;5031994;28;20156;-74
2022/06/01 09:54:14;;;;;;;0.75;0.50;;;9.80;94.90;;;;;;5035832;28;20052;-74
2022/06/01 09:56:48;;;;;;;1.30;0.70;;;9.80;94.80;;;;;;5050550;28;20108;-74
2022/06/01 10:08:16;;;;;;;1.15;0.60;;;10.00;94.50;;;;;;5049527;28;20021;-74
2022/06/01 10:11:00;;;;;;;3.15;0.93;;;10.00;94.60;;;;;;5049657;28;20060;-74
2022/06/01 10:13:47;;;;;;;1.13;0.63;;;10.00;94.70;;;;;;5049985;28;20047;-75
2022/06/01 10:16:15;;;;;;;1.58;0.80;;;9.90;95.00;;;;;;5041491;28;20100;-75
2022/06/01 10:18:43;;;;;;;1.80;0.90;;;9.80;95.50;;;;;;5048307;28;20027;-75
2022/06/01 10:21:18;;;;;;;1.98;0.90;;;9.70;95.90;;;;;;5051822;28;20028;-75
2022/06/01 10:23:49;;;;;;;2.78;1.02;;;9.50;96.10;;;;;;5036721;28;20037;-76
2022/06/01 10:26:19;;;;;;;2.83;1.10;;;9.40;96.50;;;;;;5051133;28;20402;-75
2022/06/01 10:28:53;;;;;;;4.65;1.10;;;9.40;96.80;;;;;;5047342;28;20029;-75
2022/06/01 10:31:31;;;;;;;3.25;1.27;;;9.30;97.00;;;;;;5051563;28;20025;-76
2022/06/01 10:34:10;;;;;;;2.35;1.13;;;9.20;97.20;;;;;;5041204;28;20041;-76
2022/06/01 10:36:55;;;;;;;3.00;1.40;;;9.10;97.20;;;;;;5051252;28;20108;-75
2022/06/01 10:39:35;;;;;;;1.10;0.70;;;9.20;97.10;;;;;;5046308;28;20440;-75
2022/06/01 10:42:16;;;;;;;2.35;0.70;;;9.20;96.70;;;;;;5032225;28;20091;-76
2022/06/01 10:45:07;;;;;;;2.38;0.80;;;9.30;96.50;;;;;;5035088;28;20033;-75
2022/06/01 10:48:02;;;;;;;3.78;0.60;;;9.40;96.40;;;;;;5030965;28;20057;-75
2022/06/01 10:50:48;;;;;;;1.88;0.80;;;9.50;96.20;;;;;;5045137;28;20107;-75
2022/06/01 10:53:22;;;;;;;2.30;0.80;;;9.50;96.30;;;;;;5030468;28;20033;-76
2022/06/01 10:55:49;;;;;;;1.80;0.98;;;9.40;96.30;;;;;;5031590;28;20574;-76
2022/06/01 10:58:26;;;;;;;2.35;0.93;;;9.40;96.80;;;;;;5039732;28;20033;-76
2022/06/01 11:01:07;;;;;;;1.83;1.02;;;9.30;97.20;;;;;;5036679;28;20341;-75
2022/06/01 11:03:51;;;;;;;2.67;1.45;;;9.20;97.10;;;;;;5047854;28;20032;-75
2022/06/01 11:06:22;;;;;;;3.80;2.35;;;9.10;97.00;;;;;;5038222;28;20452;-75
2022/06/01 11:09:13;;;;;;;5.20;1.48;;;9.00;97.20;;;;;;5048698;28;20040;-75
2022/06/01 11:12:01;;;;;;;2.42;1.20;;;8.90;97.70;;;;;;5049036;28;20489;-75
2022/06/01 11:14:31;;;;;;;3.75;1.25;;;8.80;97.80;;;;;;5039016;28;20182;-76
2022/06/01 11:17:02;;;;;;;1.70;0.98;;;8.70;98.00;;;;;;5049148;28;20044;-77
2022/06/01 11:19:48;;;;;;;2.97;1.40;;;8.70;98.40;;;;;;5047351;28;20418;-75
2022/06/01 11:22:28;;;;;;;2.03;1.30;;;8.60;98.60;;;;;;5047861;28;20040;-75
2022/06/01 11:25:20;;;;;;;3.15;0.95;;;8.40;99.00;;;;;;5047241;28;20044;-76
2022/06/01 11:28:12;;;;;;;1.52;0.80;;;8.40;98.90;;;;;;5049037;28;20027;-77
2022/06/01 11:30:51;;;;;;;3.40;2.30;;;8.30;99.10;;;;;;5039522;28;20040;-75
2022/06/01 11:33:52;;;;;;;1.95;1.50;;;8.20;99.40;;;;;;5040580;28;20080;-76
2022/06/01 11:36:26;;;;;;;1.60;1.17;;;8.20;99.80;;;;;;5047252;28;20040;-75
2022/06/01 11:39:11;;;;;;;1.30;0.93;;;8.20;99.90;;;;;;5048457;28;20040;-75
2022/06/01 11:41:42;;;;;;;2.17;0.90;;;8.30;99.90;;;;;;5041761;28;20664;-75
2022/06/01 11:44:20;;;;;;;1.23;0.50;;;8.20;99.90;;;;;;5037866;28;20037;-74
2022/06/01 11:47:17;;;;;;;1.10;0.50;;;8.30;99.90;;;;;;5038414;28;20134;-74
2022/06/01 11:49:45;;;;;;;;;;;8.30;99.90;;;;;;5042893;28;20125;-75
2022/06/01 11:52:24;;;;;;;1.40;0.80;;;8.40;99.70;;;;;;5048596;28;19921;-75
2022/06/01 11:55:24;;;;;;;0.80;0.60;;;8.40;99.70;;;;;;5047747;28;20368;-75
2022/06/01 11:58:05;;;;;;;0.50;0.40;;;8.50;99.60;;;;;;5050409;28;20017;-76
2022/06/01 12:00:34;;;;;;;2.05;0.65;;;8.50;99.50;;;;;;5032997;28;20723;-75
2022/06/01 12:03:22;;;;;;;0.47;0.40;;;8.60;99.40;;;;;;5035595;28;20045;-75
2022/06/01 12:06:35;;;;;;;0.28;0.10;;;8.70;99.30;;;;;;5030618;28;20032;-76
2022/06/01 12:09:04;;;;;;;0.38;0.10;;;8.80;99.30;;;;;;5035927;28;20479;-75
2022/06/01 12:11:47;;;;;;;0.65;0.10;;;8.80;99.20;;;;;;5046439;28;20037;-75
2022/06/01 12:14:35;;;;;;;0.17;0.10;;;8.80;99.20;;;;;;5037927;28;20095;-75
2022/06/01 12:17:18;;;;;;;0.20;0.20;;;8.80;99.20;;;;;;5040343;28;20472;-75
2022/06/01 12:19:54;;;;;;;0.30;0.20;;;8.80;99.50;;;;;;5047589;28;20047;-74
2022/06/01 12:28:31;;;;;;;0.73;0.20;;;8.70;99.70;;;;;;5048874;28;20044;-74
2022/06/01 12:31:11;;;;;;;0.90;0.43;;;8.70;99.80;;;;;;5029212;28;20061;-74
2022/06/01 12:34:02;;;;;;;0.45;0.40;;;8.60;99.90;;;;;;5043630;28;20075;-75
2022/06/01 12:36:48;;;;;;;0.45;0.40;;;8.60;99.90;;;;;;5048040;28;20091;-74
2022/06/01 12:39:24;;;;;;;;;;;8.60;99.90;;;;;;5033798;28;20060;-74
2022/06/01 12:42:04;;;;;;;0.73;0.30;;;8.50;99.90;;;;;;5034418;28;19913;-71
2022/06/01 12:44:36;;;;;;;0.30;0.20;;;8.40;99.90;;;;;;5045320;28;20071;-76
2022/06/01 12:47:04;;;;;;;0.35;0.20;;;8.40;99.90;;;;;;5050097;28;20480;-75
2022/06/01 12:49:42;;;;;;;0.80;0.30;;;8.30;99.90;;;;;;5045180;28;20055;-75
2022/06/01 12:52:11;;;;;;;0.88;0.20;;;8.30;99.90;;;;;;5052405;28;20343;-75
2022/06/01 12:54:41;;;;;;;0.95;0.45;;;8.30;99.90;;;;;;5051132;28;20132;-75
2022/06/01 12:57:12;;;;;;;0.47;0.20;;;8.40;99.90;;;;;;5037729;28;20041;-75
2022/06/01 12:59:42;;;;;;;0.80;0.65;;;8.40;99.90;;;;;;5048342;28;20507;-77
2022/06/01 13:02:12;;;;;;;0.70;0.20;;;8.50;99.90;;;;;;5050260;28;20079;-76
2022/06/01 13:04:50;;;;;;;0.30;0.20;;;8.70;99.90;;;;;;5041205;28;20428;-76
2022/06/01 13:07:19;;;;;;;0.20;0.10;;;8.70;99.90;;;;;;5032923;28;20391;-77
2022/06/01 13:09:57;;;;;;;0.38;0.20;;;8.70;99.90;;;;;;5043788;28;20025;-76
2022/06/01 13:12:30;;;;;;;0.10;0.10;;;8.70;99.90;;;;;;5051603;28;20025;-76
2022/06/01 13:15:10;;;;;;;0.60;0.10;;;8.70;99.90;;;;;;5041036;28;20033;-75
2022/06/01 13:17:46;;;;;;;0.10;0.00;;;8.70;99.90;;;;;;5049709;28;20021;-75
2022/06/01 13:20:14;;;;;;;0.15;0.10;;;8.70;99.90;;;;;;5034264;28;20037;-75
2022/06/01 13:22:48;;;;;;;0.65;0.65;;;8.60;99.90;;;;;;5034491;28;20047;-75
2022/06/01 13:25:28;;;;;;;0.68;0.40;;;8.60;99.90;;;;;;5035653;28;20033;-78
2022/06/01 13:27:55;;;;;;;1.33;0.70;;;8.60;99.90;;;;;;5032521;28;20117;-76
2022/06/01 13:30:34;;;;;;;3.03;0.85;;;8.60;99.90;;;;;;5033511;28;20601;-76
2022/06/01 13:33:05;;;;;;;2.30;0.85;;;8.60;99.90;;;;;;5033309;28;20049;-75
2022/06/01 13:35:34;;;;;;;2.83;1.23;;;8.50;99.90;;;;;;5037606;28;20574;-75
2022/06/01 13:38:02;;;;;;;0.73;0.50;;;8.30;99.90;;;;;;5034490;28;20087;-76
2022/06/01 13:40:35;;;;;;;3.03;0.90;;;8.30;99.90;;;;;;5032414;28;20109;-75
2022/06/01 13:43:10;;;;;;;2.17;1.10;;;8.20;99.90;;;;;;5044476;28;20375;-74
2022/06/01 13:45:58;;;;;;;1.90;0.80;;;8.20;99.90;;;;;;5032564;28;20033;-76
2022/06/01 13:48:40;;;;;;;1.73;0.73;;;8.00;99.90;;;;;;5032110;28;20060;-75
2022/06/01 13:51:24;;;;;;;2.53;1.20;;;7.80;99.90;;;;;;5041146;28;20029;-75
2022/06/01 13:53:51;;;;;;;2.05;1.23;;;7.70;99.90;;;;;;5040974;28;20511;-75